createdAt,value
2018-09-28T00:00:01.484Z,101099.66
2018-09-28T00:02:30.867Z,101097.09
2018-09-28T00:05:00.340Z,101101.06
2018-09-28T00:07:29.743Z,101098.86
2018-09-28T00:09:59.147Z,101097.14
2018-09-28T00:12:28.560Z,101096.72
2018-09-28T00:14:57.976Z,101099.34
2018-09-28T00:17:27.407Z,101093.20
2018-09-28T00:19:56.779Z,101099.31
2018-09-28T00:22:26.182Z,101092.31
2018-09-28T00:24:55.575Z,101090.98
2018-09-28T00:27:25.004Z,101094.50
2018-09-28T00:29:54.403Z,101089.24
2018-09-28T00:32:23.828Z,101091.41
2018-09-28T00:34:53.296Z,101086.13
2018-09-28T00:37:22.736Z,101090.02
2018-09-28T00:39:52.152Z,101088.69
2018-09-28T00:42:21.572Z,101085.10
2018-09-28T00:44:51.028Z,101085.07
2018-09-28T00:47:20.419Z,101082.88
2018-09-28T00:49:49.815Z,101077.59
2018-09-28T00:52:19.272Z,101077.98
2018-09-28T00:54:48.675Z,101069.65
2018-09-28T00:57:18.115Z,101066.16
2018-09-28T00:59:47.516Z,101064.83
2018-09-28T01:02:17.135Z,101064.83
2018-09-28T01:04:46.753Z,101068.73
2018-09-28T01:07:16.156Z,101063.93
2018-09-28T01:09:45.561Z,101059.12
2018-09-28T01:12:14.965Z,101064.76
2018-09-28T01:14:44.538Z,101057.31
2018-09-28T01:17:13.964Z,101049.87
2018-09-28T01:19:43.447Z,101052.44
2018-09-28T01:22:12.935Z,101060.67
2018-09-28T01:24:42.546Z,101050.17
2018-09-28T01:27:11.962Z,101045.34
2018-09-28T01:29:41.348Z,101047.52
2018-09-28T01:32:10.780Z,101048.34
2018-09-28T01:34:40.173Z,101050.45
2018-09-28T01:37:09.726Z,101042.98
2018-09-28T01:39:39.088Z,101053.41
2018-09-28T01:42:08.667Z,101053.34
2018-09-28T01:44:38.117Z,101049.83
2018-09-28T01:47:07.542Z,101044.08
2018-09-28T01:49:37.004Z,101046.22
2018-09-28T01:52:06.430Z,101050.58
2018-09-28T01:54:35.885Z,101051.00
2018-09-28T01:57:05.301Z,101057.55
2018-09-28T01:59:34.723Z,101058.83
2018-09-28T02:02:04.189Z,101050.10
2018-09-28T02:04:33.661Z,101048.80
2018-09-28T02:07:03.239Z,101051.39
2018-09-28T02:09:32.661Z,101048.75
2018-09-28T02:12:02.124Z,101045.23
2018-09-28T02:14:31.563Z,101048.71
2018-09-28T02:17:00.984Z,101050.06
2018-09-28T02:19:30.437Z,101054.01
2018-09-28T02:21:59.898Z,101053.13
2018-09-28T02:24:29.586Z,101058.41
2018-09-28T02:26:59.063Z,101063.66
2018-09-28T02:29:28.509Z,101056.23
2018-09-28T02:31:57.958Z,101052.74
2018-09-28T02:34:27.789Z,101051.45
2018-09-28T02:36:57.275Z,101047.09
2018-09-28T02:39:26.745Z,101046.64
2018-09-28T02:41:56.425Z,101047.50
2018-09-28T02:44:26.067Z,101043.58
2018-09-28T02:46:55.549Z,101051.44
2018-09-28T02:49:25.237Z,101051.88
2018-09-28T02:51:54.719Z,101055.38
2018-09-28T02:54:24.220Z,101050.14
2018-09-28T02:56:53.761Z,101053.17
2018-09-28T02:59:23.510Z,101044.87
2018-09-28T03:01:52.961Z,101047.48
2018-09-28T03:04:22.369Z,101044.42
2018-09-28T03:06:52.033Z,101043.98
2018-09-28T03:09:21.471Z,101041.80
2018-09-28T03:11:50.983Z,101044.40
2018-09-28T03:14:20.631Z,101043.95
2018-09-28T03:16:50.074Z,101047.45
2018-09-28T03:19:19.610Z,101047.42
2018-09-28T03:21:49.660Z,101051.82
2018-09-28T03:24:19.140Z,101046.56
2018-09-28T03:26:48.633Z,101050.52
2018-09-28T03:29:18.152Z,101048.81
2018-09-28T03:31:47.630Z,101042.70
2018-09-28T03:34:17.097Z,101049.30
2018-09-28T03:36:46.566Z,101048.00
2018-09-28T03:39:15.990Z,101049.34
2018-09-28T03:41:45.471Z,101054.57
2018-09-28T03:44:14.921Z,101055.04
2018-09-28T03:46:44.510Z,101044.18
2018-09-28T03:49:13.971Z,101045.94
2018-09-28T03:51:43.418Z,101048.98
2018-09-28T03:54:12.933Z,101057.27
2018-09-28T03:56:42.396Z,101052.48
2018-09-28T03:59:11.858Z,101053.78
2018-09-28T04:01:41.342Z,101051.63
2018-09-28T04:04:10.826Z,101056.84
2018-09-28T04:06:40.314Z,101052.91
2018-09-28T04:09:11.349Z,101054.65
2018-09-28T04:11:40.839Z,101051.99
2018-09-28T04:14:10.309Z,101050.23
2018-09-28T04:16:39.770Z,101058.53
2018-09-28T04:19:09.403Z,101059.39
2018-09-28T04:21:39.111Z,101060.70
2018-09-28T04:24:08.840Z,101060.23
2018-09-28T04:26:38.327Z,101064.18
2018-09-28T04:29:07.822Z,101055.90
2018-09-28T04:31:37.258Z,101059.39
2018-09-28T04:34:06.961Z,101061.99
2018-09-28T04:36:36.442Z,101066.34
2018-09-28T04:39:07.229Z,101066.30
2018-09-28T04:41:36.737Z,101071.95
2018-09-28T04:44:06.175Z,101075.87
2018-09-28T04:46:35.666Z,101082.42
2018-09-28T04:49:05.325Z,101075.03
2018-09-28T04:51:34.837Z,101079.50
2018-09-28T04:54:04.370Z,101086.16
2018-09-28T04:56:33.870Z,101081.94
2018-09-28T04:59:03.419Z,101090.80
2018-09-28T05:01:32.877Z,101095.72
2018-09-28T05:04:02.345Z,101102.41
2018-09-28T05:06:31.758Z,101101.58
2018-09-28T05:09:01.272Z,101100.75
2018-09-28T05:11:30.721Z,101099.50
2018-09-28T05:14:00.174Z,101103.13
2018-09-28T05:16:29.660Z,101108.90
2018-09-28T05:18:59.227Z,101112.44
2018-09-28T05:21:28.673Z,101114.27
2018-09-28T05:23:58.238Z,101120.41
2018-09-28T05:26:27.744Z,101127.47
2018-09-28T05:28:57.709Z,101132.28
2018-09-28T05:31:27.480Z,101140.64
2018-09-28T05:33:57.008Z,101136.30
2018-09-28T05:36:26.546Z,101141.58
2018-09-28T05:38:56.019Z,101147.31
2018-09-28T05:41:25.517Z,101153.48
2018-09-28T05:43:55.093Z,101153.05
2018-09-28T05:46:24.594Z,101158.31
2018-09-28T05:48:53.946Z,101153.09
2018-09-28T05:51:23.466Z,101158.34
2018-09-28T05:53:53.430Z,101161.86
2018-09-28T05:56:23.001Z,101164.50
2018-09-28T05:58:57.579Z,101168.87
2018-09-28T06:01:32.412Z,101178.06
2018-09-28T06:04:07.192Z,101182.44
2018-09-28T06:06:36.740Z,101185.49
2018-09-28T06:09:10.345Z,101186.80
2018-09-28T06:11:40.477Z,101193.37
2018-09-28T06:14:10.201Z,101195.10
2018-09-28T06:16:39.665Z,101199.47
2018-09-28T06:19:09.169Z,101205.17
2018-09-28T06:21:38.619Z,101209.13
2018-09-28T06:24:08.120Z,101224.88
2018-09-28T06:26:37.515Z,101226.19
2018-09-28T06:29:07.321Z,101229.68
2018-09-28T06:31:36.805Z,101235.83
2018-09-28T06:34:06.287Z,101232.75
2018-09-28T06:36:35.783Z,101245.03
2018-09-28T06:39:06.601Z,101237.18
2018-09-28T06:41:36.109Z,101245.53
2018-09-28T06:44:05.974Z,101245.95
2018-09-28T06:46:35.428Z,101254.75
2018-09-28T06:49:04.892Z,101254.37
2018-09-28T06:51:34.417Z,101251.35
2018-09-28T06:54:04.062Z,101258.40
2018-09-28T06:56:33.494Z,101252.75
2018-09-28T06:59:02.953Z,101265.45
2018-09-28T07:01:32.521Z,101268.95
2018-09-28T07:04:02.074Z,101277.69
2018-09-28T07:06:31.546Z,101280.55
2018-09-28T07:09:01.078Z,101279.69
2018-09-28T07:11:30.521Z,101269.22
2018-09-28T07:14:00.064Z,101284.56
2018-09-28T07:16:29.575Z,101280.35
2018-09-28T07:18:58.951Z,101287.97
2018-09-28T07:21:28.489Z,101289.69
2018-09-28T07:23:58.086Z,101293.97
2018-09-28T07:26:27.456Z,101308.83
2018-09-28T07:28:56.909Z,101298.77
2018-09-28T07:31:26.499Z,101304.97
2018-09-28T07:33:55.964Z,101308.78
2018-09-28T07:36:25.582Z,101307.35
2018-09-28T07:38:54.955Z,101301.14
2018-09-28T07:41:24.543Z,101312.86
2018-09-28T07:43:54.092Z,101313.95
2018-09-28T07:46:23.530Z,101318.19
2018-09-28T07:48:52.980Z,101328.66
2018-09-28T07:51:22.437Z,101340.08
2018-09-28T07:53:52.050Z,101343.11
2018-09-28T07:56:21.669Z,101339.73
2018-09-28T07:58:51.093Z,101349.74
2018-09-28T08:01:20.533Z,101352.83
2018-09-28T08:03:50.023Z,101348.40
2018-09-28T08:06:19.443Z,101353.94
2018-09-28T08:08:48.857Z,101371.45
2018-09-28T08:11:18.301Z,101376.41
2018-09-28T08:13:47.746Z,101380.70
2018-09-28T08:16:17.203Z,101374.00
2018-09-28T08:18:46.637Z,101389.41
2018-09-28T08:21:16.125Z,101391.30
2018-09-28T08:23:45.582Z,101388.11
2018-09-28T08:26:15.021Z,101390.33
2018-09-28T08:28:44.584Z,101394.93
2018-09-28T08:31:14.054Z,101392.68
2018-09-28T08:33:43.477Z,101387.28
2018-09-28T08:36:12.949Z,101400.09
2018-09-28T08:38:42.365Z,101401.48
2018-09-28T08:41:11.809Z,101394.75
2018-09-28T08:43:41.290Z,101390.03
2018-09-28T08:46:10.690Z,101399.84
2018-09-28T08:48:40.228Z,101397.70
2018-09-28T08:51:09.648Z,101395.23
2018-09-28T08:53:39.156Z,101400.59
2018-09-28T08:56:08.826Z,101406.47
2018-09-28T08:58:38.289Z,101408.79
2018-09-28T09:01:07.820Z,101415.15
2018-09-28T09:03:37.432Z,101414.44
2018-09-28T09:06:06.893Z,101417.36
2018-09-28T09:08:36.351Z,101420.72
2018-09-28T09:11:05.798Z,101417.21
2018-09-28T09:13:35.265Z,101423.67
2018-09-28T09:16:04.898Z,101424.90
2018-09-28T09:18:34.318Z,101420.53
2018-09-28T09:21:03.798Z,101434.52
2018-09-28T09:23:33.225Z,101421.98
2018-09-28T09:26:02.645Z,101438.58
2018-09-28T09:28:32.130Z,101444.13
2018-09-28T09:31:01.561Z,101445.77
2018-09-28T09:33:31.021Z,101450.66
2018-09-28T09:36:00.513Z,101455.48
2018-09-28T09:38:29.952Z,101446.80
2018-09-28T09:40:59.415Z,101458.80
2018-09-28T09:43:28.859Z,101462.80
2018-09-28T09:45:58.346Z,101446.13
2018-09-28T09:48:27.862Z,101450.53
2018-09-28T09:50:57.558Z,101446.66
2018-09-28T09:53:27.002Z,101455.22
2018-09-28T09:55:56.482Z,101445.46
2018-09-28T09:58:25.949Z,101451.05
2018-09-28T10:01:00.678Z,101462.69
2018-09-28T10:03:35.214Z,101459.94
2018-09-28T10:06:04.654Z,101449.46
2018-09-28T10:08:34.145Z,101464.62
2018-09-28T10:11:03.677Z,101451.38
2018-09-28T10:13:33.185Z,101453.41
2018-09-28T10:16:02.816Z,101454.06
2018-09-28T10:18:32.424Z,101458.94
2018-09-28T10:21:01.933Z,101456.69
2018-09-28T10:23:31.397Z,101460.05
2018-09-28T10:26:00.853Z,101454.83
2018-09-28T10:28:30.318Z,101458.58
2018-09-28T10:30:59.869Z,101457.26
2018-09-28T10:33:29.347Z,101452.95
2018-09-28T10:35:58.742Z,101461.45
2018-09-28T10:38:28.213Z,101464.33
2018-09-28T10:40:57.805Z,101458.72
2018-09-28T10:43:27.153Z,101463.87
2018-09-28T10:45:56.673Z,101463.20
2018-09-28T10:48:26.253Z,101469.64
2018-09-28T10:50:55.747Z,101470.11
2018-09-28T10:53:25.163Z,101476.97
2018-09-28T10:55:54.597Z,101473.14
2018-09-28T10:58:24.168Z,101470.95
2018-09-28T11:00:53.650Z,101457.91
2018-09-28T11:03:23.140Z,101457.36
2018-09-28T11:05:52.545Z,101472.48
2018-09-28T11:08:22.050Z,101470.21
2018-09-28T11:10:51.561Z,101464.61
2018-09-28T11:13:20.957Z,101457.25
2018-09-28T11:15:50.693Z,101460.14
2018-09-28T11:18:20.180Z,101471.42
2018-09-28T11:20:49.813Z,101472.95
2018-09-28T11:23:19.397Z,101470.47
2018-09-28T11:25:48.949Z,101465.68
2018-09-28T11:28:18.406Z,101467.47
2018-09-28T11:30:48.041Z,101469.64
2018-09-28T11:33:17.754Z,101470.91
2018-09-28T11:35:47.200Z,101478.86
2018-09-28T11:38:16.698Z,101477.06
2018-09-28T11:40:46.113Z,101475.64
2018-09-28T11:43:15.623Z,101474.30
2018-09-28T11:45:45.100Z,101479.70
2018-09-28T11:48:14.477Z,101483.72
2018-09-28T11:50:44.038Z,101479.73
2018-09-28T11:53:13.556Z,101478.84
2018-09-28T11:55:43.057Z,101485.92
2018-09-28T11:58:12.529Z,101487.14
2018-09-28T12:00:42.038Z,101476.91
2018-09-28T12:03:11.553Z,101483.01
2018-09-28T12:05:40.917Z,101486.56
2018-09-28T12:08:10.477Z,101475.55
2018-09-28T12:10:39.926Z,101473.77
2018-09-28T12:13:09.391Z,101468.48
2018-09-28T12:15:39.009Z,101468.43
2018-09-28T12:18:08.487Z,101471.53
2018-09-28T12:20:37.971Z,101470.66
2018-09-28T12:23:07.741Z,101469.27
2018-09-28T12:25:37.178Z,101470.45
2018-09-28T12:28:06.613Z,101466.03
2018-09-28T12:30:36.174Z,101481.48
2018-09-28T12:33:05.670Z,101476.81
2018-09-28T12:35:35.088Z,101480.16
2018-09-28T12:38:04.649Z,101476.75
2018-09-28T12:40:34.149Z,101477.36
2018-09-28T12:43:03.622Z,101485.43
2018-09-28T12:45:33.148Z,101489.08
2018-09-28T12:48:02.639Z,101498.79
2018-09-28T12:50:32.188Z,101504.08
2018-09-28T12:53:01.655Z,101489.61
2018-09-28T12:55:31.137Z,101483.89
2018-09-28T12:58:00.580Z,101487.02
2018-09-28T13:00:30.092Z,101489.25
2018-09-28T13:02:59.592Z,101493.20
2018-09-28T13:05:29.043Z,101495.00
2018-09-28T13:07:58.569Z,101493.65
2018-09-28T13:10:28.056Z,101496.29
2018-09-28T13:12:57.522Z,101492.77
2018-09-28T13:15:27.021Z,101489.70
2018-09-28T13:17:56.497Z,101491.45
2018-09-28T13:20:26.042Z,101487.94
2018-09-28T13:22:55.566Z,101484.86
2018-09-28T13:25:25.034Z,101487.49
2018-09-28T13:27:54.518Z,101500.69
2018-09-28T13:30:24.143Z,101497.17
2018-09-28T13:32:53.587Z,101504.20
2018-09-28T13:35:23.125Z,101504.66
2018-09-28T13:37:52.781Z,101508.20
2018-09-28T13:40:22.417Z,101510.84
2018-09-28T13:42:51.893Z,101507.30
2018-09-28T13:45:21.405Z,101517.86
2018-09-28T13:47:50.824Z,101514.78
2018-09-28T13:50:20.414Z,101517.41
2018-09-28T13:52:49.940Z,101521.83
2018-09-28T13:55:19.393Z,101525.33
2018-09-28T13:57:48.930Z,101527.11
2018-09-28T14:00:18.447Z,101536.34
2018-09-28T14:02:48.004Z,101535.01
2018-09-28T14:05:17.398Z,101538.94
2018-09-28T14:07:46.857Z,101545.52
2018-09-28T14:10:16.414Z,101550.37
2018-09-28T14:12:45.893Z,101545.96
2018-09-28T14:15:21.890Z,101546.39
2018-09-28T14:17:51.455Z,101547.67
2018-09-28T14:20:20.949Z,101549.02
2018-09-28T14:22:52.279Z,101544.61
2018-09-28T14:25:21.613Z,101546.38
2018-09-28T14:27:51.070Z,101553.84
2018-09-28T14:30:20.719Z,101548.14
2018-09-28T14:32:50.158Z,101557.85
2018-09-28T14:35:19.573Z,101554.79
2018-09-28T14:37:49.095Z,101564.03
2018-09-28T14:40:18.603Z,101559.17
2018-09-28T14:42:48.057Z,101568.81
2018-09-28T14:45:17.574Z,101562.63
2018-09-28T14:47:47.018Z,101577.12
2018-09-28T14:50:16.499Z,101578.86
2018-09-28T14:52:46.011Z,101580.61
2018-09-28T14:55:15.389Z,101571.37
2018-09-28T14:57:44.883Z,101566.96
2018-09-28T15:00:14.334Z,101575.28
2018-09-28T15:02:43.877Z,101579.66
2018-09-28T15:05:13.269Z,101584.46
2018-09-28T15:07:42.807Z,101578.30
2018-09-28T15:10:12.273Z,101581.39
2018-09-28T15:12:41.783Z,101574.32
2018-09-28T15:15:11.362Z,101581.75
2018-09-28T15:17:40.734Z,101591.77
2018-09-28T15:20:10.181Z,101586.48
2018-09-28T15:22:39.626Z,101591.27
2018-09-28T15:25:09.072Z,101593.39
2018-09-28T15:27:38.487Z,101595.07
2018-09-28T15:30:08.481Z,101604.23
2018-09-28T15:32:38.014Z,101595.39
2018-09-28T15:35:07.538Z,101600.55
2018-09-28T15:37:36.969Z,101593.01
2018-09-28T15:40:07.056Z,101592.95
2018-09-28T15:42:36.493Z,101595.92
2018-09-28T15:45:06.261Z,101597.59
2018-09-28T15:47:35.885Z,101592.27
2018-09-28T15:50:05.926Z,101591.33
2018-09-28T15:52:35.497Z,101602.19
2018-09-28T15:55:04.979Z,101605.58
2018-09-28T15:57:34.438Z,101608.99
2018-09-28T16:00:03.947Z,101609.35
2018-09-28T16:02:33.429Z,101607.52
2018-09-28T16:05:02.857Z,101610.53
2018-09-28T16:07:32.343Z,101610.40
2018-09-28T16:10:01.862Z,101604.61
2018-09-28T16:12:31.323Z,101612.38
2018-09-28T16:15:00.773Z,101620.14
2018-09-28T16:17:30.244Z,101618.77
2018-09-28T16:19:59.689Z,101626.52
2018-09-28T16:22:29.163Z,101628.19
2018-09-28T16:24:58.593Z,101636.00
2018-09-28T16:27:28.071Z,101636.78
2018-09-28T16:29:57.531Z,101630.14
2018-09-28T16:32:26.959Z,101637.53
2018-09-28T16:34:56.425Z,101645.78
2018-09-28T16:37:25.978Z,101648.78
2018-09-28T16:39:55.397Z,101652.66
2018-09-28T16:42:24.825Z,101657.80
2018-09-28T16:44:54.285Z,101659.81
2018-09-28T16:47:23.702Z,101669.73
2018-09-28T16:49:53.153Z,101667.87
2018-09-28T16:52:22.613Z,101678.33
2018-09-28T16:54:52.021Z,101685.22
2018-09-28T16:57:21.441Z,101689.88
2018-09-28T16:59:50.880Z,101695.88
2018-09-28T17:02:20.332Z,101699.61
2018-09-28T17:04:49.816Z,101698.56
2018-09-28T17:07:19.340Z,101704.52
2018-09-28T17:09:49.662Z,101713.51
2018-09-28T17:12:19.390Z,101711.59
2018-09-28T17:14:48.935Z,101716.23
2018-09-28T17:17:18.373Z,101720.08
2018-09-28T17:19:48.310Z,101723.41
2018-09-28T17:22:17.761Z,101731.56
2018-09-28T17:24:47.766Z,101736.61
2018-09-28T17:27:17.557Z,101739.96
2018-09-28T17:29:47.070Z,101743.42
2018-09-28T17:32:16.742Z,101749.08
2018-09-28T17:34:46.853Z,101748.66
2018-09-28T17:37:16.579Z,101756.08
2018-09-28T17:39:46.267Z,101752.00
2018-09-28T17:42:15.958Z,101759.73
2018-09-28T17:44:45.773Z,101757.03
2018-09-28T17:47:15.527Z,101755.60
2018-09-28T17:49:45.277Z,101759.25
2018-09-28T17:52:15.309Z,101766.46
2018-09-28T17:54:44.911Z,101766.84
2018-09-28T17:57:14.854Z,101773.70
2018-09-28T17:59:44.703Z,101772.19
2018-09-28T18:02:14.857Z,101776.41
2018-09-28T18:04:44.712Z,101777.53
2018-09-28T18:07:14.162Z,101778.23
2018-09-28T18:09:43.721Z,101784.62
2018-09-28T18:12:13.349Z,101783.61
2018-09-28T18:14:42.850Z,101786.05
2018-09-28T18:17:12.331Z,101779.83
2018-09-28T18:19:41.969Z,101786.69
2018-09-28T18:22:11.419Z,101792.76
2018-09-28T18:24:40.947Z,101788.38
2018-09-28T18:27:10.407Z,101793.04
2018-09-28T18:29:40.073Z,101795.59
2018-09-28T18:32:09.515Z,101787.20
2018-09-28T18:34:39.033Z,101792.33
2018-09-28T18:37:08.617Z,101790.97
2018-09-28T18:39:38.065Z,101790.51
2018-09-28T18:42:07.609Z,101786.17
2018-09-28T18:44:37.078Z,101794.05
2018-09-28T18:47:06.902Z,101797.17
2018-09-28T18:49:36.552Z,101804.69
2018-09-28T18:52:06.036Z,101805.48
2018-09-28T18:54:35.744Z,101802.83
2018-09-28T18:57:05.194Z,101803.10
2018-09-28T18:59:34.754Z,101812.60
2018-09-28T19:02:04.211Z,101818.25
2018-09-28T19:04:33.717Z,101820.77
2018-09-28T19:07:03.198Z,101813.20
2018-09-28T19:09:32.669Z,101820.47
2018-09-28T19:12:02.104Z,101819.52
2018-09-28T19:14:31.613Z,101821.98
2018-09-28T19:17:01.144Z,101828.36
2018-09-28T19:19:30.702Z,101827.77
2018-09-28T19:22:00.157Z,101836.77
2018-09-28T19:24:29.582Z,101832.70
2018-09-28T19:26:59.093Z,101833.58
2018-09-28T19:29:28.537Z,101836.24
2018-09-28T19:31:57.997Z,101838.95
2018-09-28T19:34:27.706Z,101839.05
2018-09-28T19:36:57.186Z,101849.08
2018-09-28T19:39:26.670Z,101843.48
2018-09-28T19:41:56.137Z,101849.25
2018-09-28T19:44:25.609Z,101853.58
2018-09-28T19:46:55.101Z,101855.41
2018-09-28T19:49:24.578Z,101860.21
2018-09-28T19:51:54.060Z,101858.75
2018-09-28T19:54:23.541Z,101861.72
2018-09-28T19:56:52.972Z,101870.23
2018-09-28T19:59:22.535Z,101863.02
2018-09-28T20:01:52.030Z,101868.55
2018-09-28T20:04:21.539Z,101868.75
2018-09-28T20:06:51.078Z,101874.16
2018-09-28T20:09:20.569Z,101871.30
2018-09-28T20:11:50.050Z,101872.84
2018-09-28T20:14:22.425Z,101874.87
2018-09-28T20:16:51.853Z,101868.13
2018-09-28T20:19:21.342Z,101881.15
2018-09-28T20:21:50.741Z,101879.79
2018-09-28T20:24:20.205Z,101883.59
2018-09-28T20:26:49.653Z,101881.70
2018-09-28T20:29:19.094Z,101888.45
2018-09-28T20:31:48.530Z,101876.23
2018-09-28T20:34:18.026Z,101888.28
2018-09-28T20:36:47.463Z,101887.70
2018-09-28T20:39:16.925Z,101895.80
2018-09-28T20:41:46.381Z,101899.48
2018-09-28T20:44:15.879Z,101903.81
2018-09-28T20:46:45.371Z,101911.70
2018-09-28T20:49:14.781Z,101914.77
2018-09-28T20:51:44.201Z,101917.44
2018-09-28T20:54:13.639Z,101921.41
2018-09-28T20:56:43.057Z,101919.69
2018-09-28T20:59:12.544Z,101924.84
2018-09-28T21:01:42.581Z,101925.56
2018-09-28T21:04:12.150Z,101926.39
2018-09-28T21:06:41.632Z,101933.80
2018-09-28T21:09:11.644Z,101936.41
2018-09-28T21:11:41.148Z,101933.92
2018-09-28T21:14:10.712Z,101938.41
2018-09-28T21:16:40.190Z,101945.55
2018-09-28T21:19:09.721Z,101947.91
2018-09-28T21:21:39.270Z,101948.85
2018-09-28T21:24:08.910Z,101949.41
2018-09-28T21:26:38.393Z,101949.52
2018-09-28T21:29:08.242Z,101947.38
2018-09-28T21:31:37.777Z,101956.16
2018-09-28T21:34:07.396Z,101957.04
2018-09-28T21:36:36.883Z,101958.77
2018-09-28T21:39:09.325Z,101963.98
2018-09-28T21:41:38.830Z,101965.28
2018-09-28T21:44:09.014Z,101965.76
2018-09-28T21:46:38.513Z,101961.26
2018-09-28T21:49:08.024Z,101969.30
2018-09-28T21:51:37.529Z,101964.50
2018-09-28T21:54:07.037Z,101969.66
2018-09-28T21:56:36.615Z,101977.31
2018-09-28T21:59:06.145Z,101980.70
2018-09-28T22:01:35.708Z,101974.51
2018-09-28T22:04:05.205Z,101968.77
2018-09-28T22:06:34.681Z,101968.23
2018-09-28T22:09:05.285Z,101971.25
2018-09-28T22:11:34.773Z,101970.72
2018-09-28T22:14:04.243Z,101974.87
2018-09-28T22:16:33.997Z,101974.78
2018-09-28T22:19:03.442Z,101975.14
2018-09-28T22:21:32.972Z,101970.41
2018-09-28T22:24:02.446Z,101977.62
2018-09-28T22:26:31.923Z,101974.02
2018-09-28T22:29:01.469Z,101979.28
2018-09-28T22:31:30.930Z,101977.51
2018-09-28T22:34:00.398Z,101968.86
2018-09-28T22:36:29.837Z,101979.28
2018-09-28T22:38:59.316Z,101980.95
2018-09-28T22:41:28.817Z,101979.64
2018-09-28T22:43:58.433Z,101977.39
2018-09-28T22:46:27.864Z,101983.84
2018-09-28T22:48:57.430Z,101984.30
2018-09-28T22:51:26.940Z,101979.31
2018-09-28T22:53:56.378Z,101986.59
2018-09-28T22:56:25.955Z,101988.06
2018-09-28T22:58:55.425Z,101995.80
2018-09-28T23:01:24.869Z,101989.03
2018-09-28T23:03:54.376Z,101990.22
2018-09-28T23:06:23.810Z,101991.17
2018-09-28T23:08:53.364Z,101987.86
2018-09-28T23:11:22.895Z,101989.45
2018-09-28T23:13:52.394Z,101991.05
2018-09-28T23:16:21.857Z,101987.55
2018-09-28T23:18:51.403Z,101984.73
2018-09-28T23:21:20.838Z,101989.27
2018-09-28T23:23:50.265Z,101990.45
2018-09-28T23:26:19.716Z,101997.50
2018-09-28T23:28:49.181Z,101995.78
2018-09-28T23:31:18.681Z,102008.75
2018-09-28T23:33:48.115Z,102009.98
2018-09-28T23:36:17.597Z,102011.67
2018-09-28T23:38:47.093Z,102009.89
2018-09-28T23:41:16.586Z,102009.83
2018-09-28T23:43:46.257Z,102003.48
2018-09-28T23:46:15.744Z,102005.25
2018-09-28T23:48:45.272Z,102007.86
2018-09-28T23:51:14.760Z,102024.31
2018-09-28T23:53:44.204Z,102015.89
2018-09-28T23:56:13.629Z,102013.70
2018-09-28T23:58:43.051Z,102014.17
